Harper, TX (78631)

4:22 PM CST on February 05, 2016 (GMT -0600)
Hill Country Observatory at Harper | | Change Station
CLOSE
Current Station
Personal Weather Station
Location: Harper, TX
Elevation: 2054 ft
Nearby Weather Stations

Elev 2054 ft 30.29 °N, 99.24 °W | Updated 15 seconds ago

Clear
Clear
56.5 °F
Feels Like 56.5 °F
N
2.9
Wind Variable Wind from SE
Gusts 11.0 mph

Today
High -- | Low -- °F
--% Chance of Precip.
Yesterday
High -- | Low -- °F
Precip. -- in
Pressure 30.24 in
Visibility 10.0 miles
Clouds Clear
Dew Point 28 °F
Humidity 33%
Rainfall 0.00 in
Snow Depth Not available.
7:25 AM 6:16 PM
Waning Crescent, 9% visible
METAR KT82 052215Z AUTO 21008G17KT 10SM CLR 14/M04 A3024 RMK AO2 T01351043
Pressure 30.24 in
Visibility 10.0 miles
Clouds Clear
Dew Point 28 °F
Humidity 33%
Rainfall 0.00 in
Snow Depth Not available.
7:25 AM 6:16 PM
Waning Crescent, 9% visible
METAR KT82 052215Z AUTO 21008G17KT 10SM CLR 14/M04 A3024 RMK AO2 T01351043

10-Day Weather Forecast

Almanac

Astronomy

Feb. 05, 2016 Rise Set
Actual Time
Civil Twilight
Nautical Twilight
Astronomical Twilight
Moon
Length of Visible Light
Length of Day
Tomorrow will be .
, % of the Moon is Illuminated

Today's Extremes

State Highs State Lows

Community

WunderPhotos

Upload Photos

1,890,878 photos uploaded!

WunderBlog® & News

Nearby

Air Quality

  Air Quality AQ Index Pollutant
Not available.

Snow Depth

Station Depth Elevation

Earthquake Activity

City Distance Mag. Time & Date
Minimum magnitude displayed is 2.5.

Coastal Water Temperatures

Place Temperature

Stations

Nearby Weather Stations

Station Location Temp. Windchill Dew Point Humidity Wind Precip. Elev Updated Type
                   

Watches & Warnings

There are currently no watches in effect.